Time;durP1;ratioP1;P1;durP2;ratioP2;P2;SDS_P1;SDS_P2;PMS_P1;PMS_P2;Temp;Humidity;BMP_temperature;BMP_pressure;BME280_temperature;BME280_humidity;BME280_pressure;Samples;Min_cycle;Max_cycle;Signal;HPM_P1;HPM_P2
2021/12/10 00:01:21;;;;;;;10.98;5.53;;;;;;;7.72;60.26;99756.31;4929725;28;113243;-66
2021/12/10 00:03:52;;;;;;;11.77;5.82;;;;;;;7.69;60.33;99745.06;4911284;28;113927;-65
2021/12/10 00:06:24;;;;;;;12.45;5.43;;;;;;;7.68;60.61;99748.63;4914133;28;124817;-66
2021/12/10 00:08:55;;;;;;;15.02;5.70;;;;;;;7.67;60.29;99753.03;4926389;28;123769;-65
2021/12/10 00:11:29;;;;;;;12.48;5.90;;;;;;;7.64;60.24;99741.81;4910629;28;114061;-65
2021/12/10 00:13:57;;;;;;;15.18;5.40;;;;;;;7.64;60.20;99749.72;4919870;28;113697;-66
2021/12/10 00:16:25;;;;;;;10.80;5.35;;;;;;;7.62;60.58;99738.41;4917855;28;124007;-65
2021/12/10 00:19:05;;;;;;;8.50;4.90;;;;;;;7.60;60.20;99731.41;4911128;28;124699;-65
2021/12/10 00:21:32;;;;;;;12.48;5.38;;;;;;;7.57;60.29;99728.94;4908270;28;115293;-66
2021/12/10 00:23:59;;;;;;;13.00;5.35;;;;;;;7.56;60.21;99735.13;4910274;28;115261;-66
2021/12/10 00:26:27;;;;;;;9.00;4.90;;;;;;;7.55;60.35;99722.03;4926030;28;123054;-66
2021/12/10 00:29:01;;;;;;;7.72;5.22;;;;;;;7.54;60.29;99717.72;4918586;28;123937;-66
2021/12/10 00:34:17;;;;;;;8.43;4.72;;;;;;;7.49;60.37;99699.47;4916945;28;114097;-66
2021/12/10 00:36:46;;;;;;;10.70;5.43;;;;;;;7.48;60.53;99689.88;4918790;28;124175;-66
2021/12/10 00:39:24;;;;;;;10.98;5.10;;;;;;;7.47;60.54;99693.44;4922116;28;123899;-66
2021/12/10 00:41:54;;;;;;;8.02;4.40;;;;;;;7.45;60.27;99694.47;4913708;28;114607;-65
2021/12/10 00:44:21;;;;;;;11.35;5.20;;;;;;;7.44;60.57;99693.63;4916679;28;113948;-65
2021/12/10 00:46:49;;;;;;;10.32;5.35;;;;;;;7.42;60.32;99684.91;4914309;28;124658;-65
2021/12/10 00:49:16;;;;;;;10.93;5.35;;;;;;;7.42;60.39;99679.63;4913452;28;124327;-65
2021/12/10 00:51:44;;;;;;;13.52;5.20;;;;;;;7.42;60.39;99679.63;4912646;28;114350;-66
2021/12/10 00:54:12;;;;;;;9.38;4.85;;;;;;;7.41;60.72;99668.25;4917365;28;114388;-65
2021/12/10 00:56:41;;;;;;;11.90;5.13;;;;;;;7.41;60.44;99662.16;4923601;28;123962;-65
2021/12/10 00:59:10;;;;;;;11.35;4.80;;;;;;;7.40;60.43;99655.16;4914472;28;124243;-66
2021/12/10 01:01:41;;;;;;;10.38;4.82;;;;;;;7.40;60.64;99655.16;4915205;28;114691;-66
2021/12/10 01:04:14;;;;;;;10.48;4.97;;;;;;;7.39;60.43;99640.31;4916824;28;114378;-66
2021/12/10 01:06:44;;;;;;;10.95;4.75;;;;;;;7.39;60.39;99638.50;4913732;28;124103;-66
2021/12/10 01:09:17;;;;;;;7.38;4.30;;;;;;;7.38;60.29;99628.94;4914177;28;125144;-65
2021/12/10 01:11:51;;;;;;;11.60;4.18;;;;;;;7.38;60.27;99625.41;4915515;28;115259;-66
2021/12/10 01:15:09;;;;;;;7.70;4.07;;;;;;;7.37;60.26;99623.72;4915680;28;115644;-66
2021/12/10 01:26:08;;;;;;;9.45;4.15;;;;;;;7.26;60.30;99599.72;4916009;28;113838;-65
2021/12/10 01:28:41;;;;;;;7.90;4.05;;;;;;;7.24;60.58;99591.06;4912233;28;124285;-65
2021/12/10 01:31:08;;;;;;;9.32;3.83;;;;;;;7.24;60.37;99591.06;4917533;28;124011;-65
2021/12/10 01:33:36;;;;;;;8.75;3.85;;;;;;;7.21;60.42;99582.38;4934193;28;113185;-65
2021/12/10 01:36:07;;;;;;;6.85;3.70;;;;;;;7.19;60.15;99584.22;4927233;28;113245;-65
2021/12/10 01:38:38;;;;;;;6.75;3.42;;;;;;;7.18;60.43;99582.53;4916764;28;123991;-65
2021/12/10 01:41:09;;;;;;;8.20;3.90;;;;;;;7.16;60.39;99576.50;4917278;28;124732;-65
2021/12/10 01:43:39;;;;;;;7.93;4.00;;;;;;;7.14;60.41;99573.09;4928109;28;113055;-65
2021/12/10 01:46:12;;;;;;;7.32;3.42;;;;;;;7.12;60.22;99571.44;4916340;28;114303;-65
2021/12/10 01:48:43;;;;;;;6.28;3.30;;;;;;;7.09;60.34;99561.94;4924392;28;124077;-65
2021/12/10 01:51:14;;;;;;;7.78;3.25;;;;;;;7.08;60.00;99554.97;4913503;28;124565;-64
2021/12/10 01:53:43;;;;;;;7.63;3.63;;;;;;;7.07;60.00;99550.63;4917707;28;114657;-65
2021/12/10 01:56:15;;;;;;;7.35;3.05;;;;;;;7.05;60.35;99544.59;4915895;28;113926;-64
2021/12/10 01:58:43;;;;;;;11.55;3.35;;;;;;;7.02;60.28;99544.75;4927812;28;123729;-65
2021/12/10 02:01:15;;;;;;;6.30;2.95;;;;;;;7.01;60.16;99537.81;4917628;28;123588;-66
2021/12/10 02:03:45;;;;;;;11.85;3.78;;;;;;;6.99;60.26;99534.41;4917801;28;115220;-66
2021/12/10 02:06:12;;;;;;;5.18;2.92;;;;;;;6.97;59.95;99523.09;4915732;28;114932;-66
2021/12/10 02:08:40;;;;;;;5.20;2.67;;;;;;;6.96;60.23;99524.03;4917417;28;123975;-66
2021/12/10 02:11:09;;;;;;;8.45;2.85;;;;;;;6.94;60.11;99520.63;4913645;28;123935;-66
2021/12/10 02:13:36;;;;;;;6.38;2.78;;;;;;;6.93;60.13;99519.78;4920675;28;114233;-66
2021/12/10 02:16:05;;;;;;;6.00;2.67;;;;;;;6.93;60.08;99513.63;4921472;28;113929;-66
2021/12/10 02:18:32;;;;;;;5.03;2.45;;;;;;;6.91;60.22;99499.72;4927046;28;124448;-66
2021/12/10 02:21:03;;;;;;;5.32;2.70;;;;;;;6.89;60.26;99491.88;4912645;28;124184;-66
2021/12/10 02:23:37;;;;;;;4.45;2.70;;;;;;;6.89;59.92;99491.03;4917015;28;114437;-66
2021/12/10 02:26:08;;;;;;;5.10;2.38;;;;;;;6.88;60.16;99484.09;4918833;28;114561;-66
2021/12/10 02:28:37;;;;;;;7.60;2.35;;;;;;;6.87;60.39;99477.13;4928118;28;123790;-66
2021/12/10 02:31:07;;;;;;;7.03;2.58;;;;;;;6.86;60.14;99475.44;4914529;28;123935;-66
2021/12/10 02:33:35;;;;;;;6.68;2.47;;;;;;;6.86;60.15;99470.16;4913794;28;114487;-66
2021/12/10 02:36:04;;;;;;;4.70;2.40;;;;;;;6.85;60.07;99468.44;4912856;28;113974;-66
2021/12/10 02:38:31;;;;;;;4.78;2.40;;;;;;;6.83;60.34;99461.47;4915059;28;123865;-66
2021/12/10 02:40:59;;;;;;;6.03;2.72;;;;;;;6.82;59.86;99465.06;4917873;28;122840;-65
2021/12/10 02:43:26;;;;;;;6.05;2.42;;;;;;;6.82;60.26;99453.69;4913365;28;114637;-64
2021/12/10 02:45:56;;;;;;;5.88;2.67;;;;;;;6.81;60.24;99452.81;4911174;28;114774;-64
2021/12/10 02:48:25;;;;;;;4.60;2.20;;;;;;;6.82;60.26;99437.91;4924096;28;123285;-64
2021/12/10 02:50:55;;;;;;;6.72;2.50;;;;;;;6.82;60.04;99432.63;4917818;28;124492;-64
2021/12/10 02:53:27;;;;;;;5.85;2.20;;;;;;;6.80;60.04;99422.19;4912099;28;115217;-64
2021/12/10 02:55:57;;;;;;;7.70;2.63;;;;;;;6.80;60.34;99416.91;4925280;28;115386;-64
2021/12/10 02:58:25;;;;;;;7.05;2.50;;;;;;;6.80;60.32;99411.66;4916832;28;123875;-64
2021/12/10 03:01:08;;;;;;;4.90;2.30;;;;;;;6.80;60.28;99403.75;4918874;28;123803;-64
2021/12/10 03:03:38;;;;;;;8.02;3.00;;;;;;;6.80;60.15;99403.75;4909964;28;114358;-65
2021/12/10 03:06:10;;;;;;;5.43;2.55;;;;;;;6.79;60.09;99409.94;4925450;28;113992;-65
2021/12/10 03:08:41;;;;;;;4.72;2.22;;;;;;;6.78;60.01;99405.63;4913534;28;124420;-65
2021/12/10 03:11:11;;;;;;;4.55;2.55;;;;;;;6.76;60.15;99394.34;4925480;28;122572;-65
2021/12/10 03:13:39;;;;;;;5.28;2.40;;;;;;;6.74;59.90;99398.84;4917669;28;114302;-64
2021/12/10 03:16:07;;;;;;;4.35;2.30;;;;;;;6.73;60.10;99386.59;4915112;28;113830;-64
2021/12/10 03:18:35;;;;;;;6.63;2.50;;;;;;;6.71;59.79;99383.19;4917649;28;123820;-64
2021/12/10 03:21:09;;;;;;;4.25;2.35;;;;;;;6.71;59.90;99383.19;4914183;28;123826;-64
2021/12/10 03:23:42;;;;;;;6.53;2.28;;;;;;;6.71;59.93;99377.94;4914024;28;114378;-65
2021/12/10 03:26:18;;;;;;;5.70;2.80;;;;;;;6.71;60.25;99377.94;4912042;28;114016;-64
2021/12/10 03:28:47;;;;;;;6.57;2.55;;;;;;;6.72;60.12;99374.34;4912049;28;123921;-64
2021/12/10 03:31:16;;;;;;;6.72;2.60;;;;;;;6.71;60.26;99367.41;4924661;28;122791;-65
2021/12/10 03:33:45;;;;;;;4.72;2.30;;;;;;;6.71;60.27;99371.81;4909734;28;114285;-64
2021/12/10 03:36:14;;;;;;;4.85;2.30;;;;;;;6.70;60.00;99360.44;4911868;28;114282;-64
2021/12/10 03:38:42;;;;;;;4.55;2.65;;;;;;;6.71;59.90;99362.16;4911804;28;124671;-64
2021/12/10 03:41:12;;;;;;;8.38;2.90;;;;;;;6.72;59.97;99358.56;4913741;28;124202;-64
2021/12/10 03:43:43;;;;;;;4.18;2.30;;;;;;;6.71;60.10;99354.25;4912586;28;117187;-64
2021/12/10 03:46:11;;;;;;;6.53;2.67;;;;;;;6.70;59.79;99349.91;4910621;28;115047;-65
2021/12/10 03:48:41;;;;;;;7.60;2.40;;;;;;;6.69;59.79;99348.22;4913718;28;123821;-64
2021/12/10 03:51:12;;;;;;;4.78;2.10;;;;;;;6.68;60.08;99335.16;4925426;28;123725;-64
2021/12/10 03:53:39;;;;;;;5.70;2.42;;;;;;;6.66;59.69;99327.34;4917223;28;115507;-64
2021/12/10 03:56:10;;;;;;;5.32;2.25;;;;;;;6.66;59.99;99332.59;4910068;28;114120;-64
2021/12/10 03:58:38;;;;;;;4.95;2.15;;;;;;;6.65;59.75;99325.66;4910174;28;123911;-64
2021/12/10 04:01:07;;;;;;;7.05;2.17;;;;;;;6.63;59.97;99317.00;4908520;28;123895;-65
2021/12/10 04:03:35;;;;;;;6.07;2.30;;;;;;;6.62;59.82;99315.28;4911378;28;115146;-64
2021/12/10 04:06:02;;;;;;;7.13;2.60;;;;;;;6.61;59.86;99303.03;4919514;28;113949;-64
2021/12/10 04:08:30;;;;;;;5.13;2.20;;;;;;;6.59;59.73;99304.91;4914911;28;124235;-65
2021/12/10 04:10:59;;;;;;;6.25;2.55;;;;;;;6.59;59.98;99310.16;4912620;28;124240;-64
2021/12/10 04:13:26;;;;;;;7.57;2.53;;;;;;;6.58;59.89;99309.31;4918324;28;114178;-65
2021/12/10 04:15:54;;;;;;;8.07;2.22;;;;;;;6.56;59.69;99305.09;4915417;28;114142;-65
2021/12/10 04:18:22;;;;;;;4.55;2.38;;;;;;;6.55;59.80;99298.13;4914712;28;123762;-65
2021/12/10 04:20:49;;;;;;;4.32;2.40;;;;;;;6.55;59.81;99295.50;4913888;28;124298;-64
2021/12/10 04:23:19;;;;;;;4.32;1.88;;;;;;;6.55;59.82;99292.84;4915183;28;114367;-64
2021/12/10 04:25:46;;;;;;;5.80;2.50;;;;;;;6.56;59.86;99294.56;4914024;28;114095;-64
2021/12/10 04:28:17;;;;;;;10.43;1.98;;;;;;;6.56;60.10;99286.69;4916642;28;124224;-64
2021/12/10 04:30:46;;;;;;;6.47;2.00;;;;;;;6.56;59.83;99281.41;4913746;28;124208;-64
2021/12/10 04:33:17;;;;;;;7.25;2.22;;;;;;;6.56;59.92;99268.28;4917215;28;115210;-65
2021/12/10 04:35:46;;;;;;;6.28;2.05;;;;;;;6.56;59.74;99274.38;4930429;28;113754;-65
2021/12/10 04:38:15;;;;;;;5.60;1.90;;;;;;;6.57;60.10;99267.31;4914562;28;125097;-65
2021/12/10 04:40:47;;;;;;;3.90;1.80;;;;;;;6.58;60.06;99255.88;4912946;28;124588;-65
2021/12/10 04:43:16;;;;;;;5.80;1.83;;;;;;;6.57;60.01;99254.16;4917624;28;114574;-64
2021/12/10 04:45:43;;;;;;;6.47;2.13;;;;;;;6.57;59.68;99254.16;4914667;28;113939;-65
2021/12/10 04:48:11;;;;;;;6.28;1.73;;;;;;;6.58;59.87;99245.34;4912531;28;123908;-65
2021/12/10 04:50:38;;;;;;;5.20;1.83;;;;;;;6.57;59.82;99239.25;4913046;28;124465;-65
2021/12/10 04:53:09;;;;;;;5.30;1.65;;;;;;;6.58;59.88;99235.69;4914492;28;114571;-65
2021/12/10 04:55:37;;;;;;;7.57;1.60;;;;;;;6.60;59.79;99225.09;4928640;28;114123;-65
2021/12/10 04:58:05;;;;;;;4.80;1.65;;;;;;;6.61;60.11;99218.88;4913788;28;124543;-65
2021/12/10 05:00:43;;;;;;;7.30;1.90;;;;;;;6.60;59.81;99217.19;4927829;28;123466;-65
2021/12/10 05:03:12;;;;;;;4.93;1.70;;;;;;;6.61;59.86;99213.59;4916392;28;114278;-65
2021/12/10 05:05:41;;;;;;;5.53;1.70;;;;;;;6.61;59.85;99209.22;4913601;28;113836;-65
2021/12/10 05:08:09;;;;;;;3.95;1.63;;;;;;;6.62;59.67;99205.63;4916450;28;124165;-65
2021/12/10 05:10:37;;;;;;;4.57;1.85;;;;;;;6.63;60.02;99203.88;4913280;28;124275;-65
2021/12/10 05:13:04;;;;;;;7.00;1.70;;;;;;;6.62;59.61;99194.28;4914267;28;115455;-65
2021/12/10 05:15:34;;;;;;;4.03;1.50;;;;;;;6.62;60.05;99189.00;4917695;28;113822;-66
2021/12/10 05:18:02;;;;;;;6.93;1.67;;;;;;;6.63;59.57;99175.78;4914896;28;124058;-65
2021/12/10 05:20:35;;;;;;;7.95;1.90;;;;;;;6.63;59.59;99175.78;4918105;28;124184;-65
2021/12/10 05:23:03;;;;;;;4.60;1.95;;;;;;;6.64;59.97;99166.09;4928471;28;115623;-65
2021/12/10 05:25:31;;;;;;;6.13;1.80;;;;;;;6.64;59.87;99166.09;4914654;28;115465;-65
2021/12/10 05:27:59;;;;;;;6.65;1.70;;;;;;;6.65;59.68;99162.56;4912034;28;124053;-65
2021/12/10 05:30:30;;;;;;;5.70;1.67;;;;;;;6.66;59.66;99164.22;4914676;28;124264;-65
2021/12/10 05:33:00;;;;;;;9.10;1.73;;;;;;;6.68;59.99;99161.53;4914083;28;114214;-65
2021/12/10 05:35:33;;;;;;;4.18;1.48;;;;;;;6.68;59.87;99157.09;4913876;28;113855;-65
2021/12/10 05:38:00;;;;;;;5.15;1.45;;;;;;;6.69;59.75;99164.06;4920457;28;123963;-66
2021/12/10 05:40:27;;;;;;;5.70;1.38;;;;;;;6.70;60.00;99149.97;4913447;28;123826;-65
2021/12/10 05:42:54;;;;;;;3.38;1.27;;;;;;;6.71;59.97;99156.94;4917117;28;114742;-65
2021/12/10 05:45:23;;;;;;;6.75;1.50;;;;;;;6.74;59.50;99143.63;4913057;28;114290;-66
2021/12/10 05:47:51;;;;;;;4.70;1.52;;;;;;;6.77;59.89;99135.53;4912823;28;124691;-65
2021/12/10 05:50:22;;;;;;;4.82;1.90;;;;;;;6.79;60.04;99138.09;4912611;28;123795;-66
2021/12/10 05:52:50;;;;;;;8.07;1.90;;;;;;;6.81;59.74;99147.56;4931301;28;114209;-62
2021/12/10 05:55:18;;;;;;;2.55;1.25;;;;;;;6.83;59.68;99129.91;4913400;28;114219;-63
2021/12/10 05:57:45;;;;;;;4.60;1.42;;;;;;;6.87;59.66;99135.00;4913691;28;124032;-64
2021/12/10 06:00:21;;;;;;;6.65;1.60;;;;;;;6.89;59.78;99138.41;4928656;28;123068;-64
2021/12/10 06:02:48;;;;;;;4.05;1.50;;;;;;;6.90;59.83;99134.84;4916291;28;114318;-64
2021/12/10 06:05:18;;;;;;;7.97;1.40;;;;;;;6.93;59.61;99132.03;4912082;28;114211;-64
2021/12/10 06:07:45;;;;;;;4.78;1.65;;;;;;;6.95;59.90;99122.25;4927680;28;123823;-63
2021/12/10 06:10:15;;;;;;;8.77;1.55;;;;;;;6.97;59.75;99120.41;4915637;28;123963;-64
2021/12/10 06:12:44;;;;;;;5.03;1.42;;;;;;;6.99;59.87;99118.53;4912425;28;115489;-63
2021/12/10 06:15:12;;;;;;;3.55;1.65;;;;;;;7.01;59.82;99111.38;4921516;28;115536;-63
2021/12/10 06:17:40;;;;;;;8.68;1.70;;;;;;;7.02;59.55;99113.06;4913536;28;124261;-63
2021/12/10 06:20:10;;;;;;;6.70;1.42;;;;;;;7.03;59.40;99109.50;4913711;28;124299;-64
2021/12/10 06:22:37;;;;;;;5.68;1.30;;;;;;;7.04;59.56;99105.91;4915425;28;114926;-63
2021/12/10 06:25:06;;;;;;;6.30;1.60;;;;;;;7.04;59.40;99100.66;4912482;28;113702;-64
2021/12/10 06:27:33;;;;;;;4.85;1.65;;;;;;;7.06;59.74;99088.25;4913043;28;123773;-65
2021/12/10 06:30:02;;;;;;;3.50;1.40;;;;;;;7.07;59.92;99079.44;4926937;28;123747;-64
2021/12/10 06:32:29;;;;;;;4.07;1.33;;;;;;;7.08;59.52;99089.00;4914088;28;114366;-63
2021/12/10 06:34:57;;;;;;;5.15;1.45;;;;;;;7.10;59.56;99086.28;4911543;28;113723;-64
2021/12/10 06:37:24;;;;;;;4.18;1.38;;;;;;;7.13;59.86;99094.03;4910008;28;125089;-64
2021/12/10 06:39:51;;;;;;;4.95;1.60;;;;;;;7.14;59.51;99086.03;4916113;28;124250;-64
2021/12/10 06:42:18;;;;;;;5.53;2.00;;;;;;;7.16;59.29;99089.41;4915947;28;114219;-64
2021/12/10 06:45:05;;;;;;;3.90;1.30;;;;;;;7.16;59.28;99089.41;4927990;28;113066;-65
2021/12/10 06:47:33;;;;;;;5.72;1.35;;;;;;;7.17;59.19;99085.84;4911475;28;124168;-64
2021/12/10 06:50:00;;;;;;;7.60;2.03;;;;;;;7.18;59.24;99087.53;4911159;28;124730;-65
2021/12/10 06:52:28;;;;;;;6.80;1.33;;;;;;;7.18;59.35;99091.97;4912691;28;114595;-63
2021/12/10 06:54:55;;;;;;;3.92;1.10;;;;;;;7.18;59.59;99087.53;4915872;28;114114;-64
2021/12/10 06:57:22;;;;;;;4.18;1.10;;;;;;;7.19;59.24;99089.22;4918695;28;126123;-64
2021/12/10 06:59:49;;;;;;;7.80;1.70;;;;;;;7.20;59.64;99080.41;4912939;28;124472;-64
2021/12/10 07:02:16;;;;;;;5.38;1.35;;;;;;;7.21;59.29;99092.63;4910950;28;115178;-64
2021/12/10 07:04:44;;;;;;;4.78;1.38;;;;;;;7.24;59.59;99080.22;4919222;28;115270;-64
2021/12/10 07:07:15;;;;;;;4.07;1.38;;;;;;;7.26;59.51;99094.16;4915047;28;124608;-65
2021/12/10 07:09:42;;;;;;;6.07;1.60;;;;;;;7.26;59.21;99086.25;4914849;28;124004;-64
2021/12/10 07:12:09;;;;;;;6.18;1.58;;;;;;;7.27;59.75;99090.56;4919279;28;114387;-65
2021/12/10 07:14:37;;;;;;;6.32;1.75;;;;;;;7.29;59.59;99088.69;4928573;28;113479;-64
2021/12/10 07:17:05;;;;;;;5.32;1.48;;;;;;;7.31;59.33;99097.31;4911773;28;123804;-65
2021/12/10 07:19:32;;;;;;;3.65;1.50;;;;;;;7.30;59.44;99096.50;4927289;28;122880;-64
2021/12/10 07:21:59;;;;;;;5.93;1.70;;;;;;;7.31;59.39;99092.94;4910244;28;114737;-64
2021/12/10 07:24:26;;;;;;;8.02;1.90;;;;;;;7.32;59.38;99088.50;4909943;28;113740;-64
2021/12/10 07:26:55;;;;;;;3.13;1.30;;;;;;;7.35;59.52;99088.34;4908579;28;124586;-65
2021/12/10 07:29:22;;;;;;;4.97;1.70;;;;;;;7.37;59.43;99091.72;4926133;28;123515;-65
2021/12/10 07:31:49;;;;;;;5.75;2.00;;;;;;;7.38;59.14;99088.13;4910617;28;114836;-65
2021/12/10 07:34:17;;;;;;;5.45;1.80;;;;;;;7.39;59.34;99089.84;4911714;28;113907;-65
2021/12/10 07:36:44;;;;;;;6.47;1.95;;;;;;;7.40;59.21;99080.97;4911980;28;124239;-65
2021/12/10 07:39:12;;;;;;;7.90;2.00;;;;;;;7.42;59.19;99089.63;4909562;28;123797;-65
2021/12/10 07:41:42;;;;;;;6.22;2.20;;;;;;;7.43;59.22;99074.69;4910364;28;114961;-64
2021/12/10 07:44:11;;;;;;;8.23;2.00;;;;;;;7.43;59.20;99083.44;4927594;28;113442;-62
2021/12/10 07:46:40;;;;;;;7.28;2.22;;;;;;;7.43;58.93;99075.53;4911659;28;124067;-62
2021/12/10 07:49:15;;;;;;;4.82;2.30;;;;;;;7.46;59.20;99078.00;4910679;28;123444;-64
2021/12/10 07:51:49;;;;;;;8.93;2.28;;;;;;;7.47;59.15;99090.22;4908754;28;115367;-63
2021/12/10 07:54:18;;;;;;;4.53;1.85;;;;;;;7.47;59.16;99087.56;4911413;28;113828;-63
2021/12/10 07:56:53;;;;;;;4.43;2.10;;;;;;;7.47;59.39;99087.56;4912159;28;123858;-63
2021/12/10 07:59:20;;;;;;;6.78;2.42;;;;;;;7.49;59.21;99101.50;4912329;28;124319;-63
2021/12/10 08:01:47;;;;;;;4.75;2.13;;;;;;;7.50;58.83;99097.94;4912194;28;113677;-63
2021/12/10 08:04:15;;;;;;;5.82;2.00;;;;;;;7.51;58.95;99094.34;4909909;28;113639;-63
2021/12/10 08:06:42;;;;;;;4.32;2.05;;;;;;;7.52;58.96;99096.06;4909941;28;124712;-63
2021/12/10 08:09:09;;;;;;;7.88;2.30;;;;;;;7.53;59.18;99091.63;4910600;28;124339;-63
2021/12/10 08:11:37;;;;;;;5.80;2.13;;;;;;;7.53;58.98;99087.19;4894021;28;113173;-63
2021/12/10 08:14:07;;;;;;;7.28;2.35;;;;;;;7.55;59.36;99085.34;4908953;28;113953;-63
2021/12/10 08:16:36;;;;;;;4.95;2.13;;;;;;;7.57;59.06;99088.72;4908878;28;125481;-63
2021/12/10 08:19:04;;;;;;;6.88;2.40;;;;;;;7.58;59.01;99090.41;4909559;28;124655;-63
2021/12/10 08:21:31;;;;;;;4.35;2.20;;;;;;;7.60;59.18;99092.94;4926707;28;113326;-63
2021/12/10 08:24:00;;;;;;;6.00;2.17;;;;;;;7.62;58.88;99090.22;4912026;28;113976;-63
2021/12/10 08:26:27;;;;;;;6.55;2.25;;;;;;;7.63;58.66;99097.19;4911777;28;124520;-63
2021/12/10 08:28:54;;;;;;;9.95;2.58;;;;;;;7.65;59.00;99095.28;4909738;28;123686;-63
2021/12/10 08:31:21;;;;;;;6.53;2.70;;;;;;;7.67;58.78;99101.34;4910056;28;114652;-63
2021/12/10 08:33:49;;;;;;;6.00;2.47;;;;;;;7.68;58.94;99103.03;4911662;28;113675;-63
2021/12/10 08:36:19;;;;;;;4.82;2.10;;;;;;;7.68;59.08;99103.84;4911392;28;124279;-63
2021/12/10 08:38:47;;;;;;;5.28;1.98;;;;;;;7.71;58.98;99097.56;4926578;28;123707;-63
2021/12/10 08:41:22;;;;;;;4.88;1.90;;;;;;;7.73;58.61;99098.31;4911059;28;115622;-63
2021/12/10 08:43:50;;;;;;;5.47;2.00;;;;;;;7.76;58.85;99103.38;4910621;28;114680;-63
2021/12/10 08:46:18;;;;;;;4.65;2.05;;;;;;;7.78;58.85;99098.91;4909505;28;124324;-63
2021/12/10 08:48:48;;;;;;;4.35;1.95;;;;;;;7.79;58.60;99097.94;4911335;28;124143;-63
2021/12/10 08:51:24;;;;;;;5.22;2.03;;;;;;;7.81;58.54;99101.31;4911428;28;114116;-63
2021/12/10 08:53:52;;;;;;;4.82;1.90;;;;;;;7.82;58.36;99097.75;4930368;28;113963;-63
2021/12/10 08:56:21;;;;;;;5.50;1.92;;;;;;;7.84;58.49;99095.88;4912842;28;124036;-63
2021/12/10 08:58:49;;;;;;;4.60;1.63;;;;;;;7.86;58.37;99101.88;4914220;28;124517;-63
2021/12/10 09:01:20;;;;;;;7.38;1.88;;;;;;;7.88;58.58;99102.63;4914910;28;114586;-63
2021/12/10 09:03:51;;;;;;;6.20;2.03;;;;;;;7.89;58.44;99104.34;4912876;28;114092;-63
2021/12/10 09:06:21;;;;;;;6.43;1.95;;;;;;;7.90;58.41;99100.75;4914265;28;124168;-63
2021/12/10 09:08:48;;;;;;;4.40;1.90;;;;;;;7.92;58.46;99104.13;4912280;28;124360;-63
2021/12/10 09:11:16;;;;;;;6.32;2.33;;;;;;;7.94;58.62;99102.25;4912262;28;114283;-63
2021/12/10 09:13:56;;;;;;;5.57;1.80;;;;;;;7.96;58.46;99115.34;4914736;28;113875;-63
2021/12/10 09:16:27;;;;;;;5.35;2.20;;;;;;;7.97;58.48;99117.88;4912286;28;123783;-63
2021/12/10 09:19:00;;;;;;;4.80;1.98;;;;;;;7.96;58.46;99118.81;4912501;28;124604;-63
2021/12/10 09:21:30;;;;;;;7.40;2.08;;;;;;;7.97;58.06;99123.16;4912851;28;114909;-63
2021/12/10 09:24:03;;;;;;;4.80;1.73;;;;;;;7.98;58.29;99132.75;4913200;28;115241;-63
2021/12/10 09:26:34;;;;;;;5.30;2.05;;;;;;;8.01;58.48;99128.25;4914180;28;124029;-63
2021/12/10 09:29:04;;;;;;;6.20;1.67;;;;;;;8.02;58.46;99129.94;4911715;28;124395;-63
2021/12/10 09:31:33;;;;;;;6.63;1.83;;;;;;;8.02;58.41;99125.50;4912124;28;115508;-63
2021/12/10 09:34:00;;;;;;;3.28;1.50;;;;;;;8.05;58.17;99127.13;4913246;28;114651;-63
2021/12/10 09:36:29;;;;;;;5.82;1.60;;;;;;;8.05;58.59;99124.47;4913698;28;123939;-63
2021/12/10 09:38:56;;;;;;;6.32;1.67;;;;;;;8.08;58.33;99126.91;4914047;28;124563;-65
2021/12/10 09:41:24;;;;;;;5.90;1.95;;;;;;;8.09;58.38;99131.25;4914116;28;114091;-65
2021/12/10 09:43:53;;;;;;;6.57;1.83;;;;;;;8.11;58.48;99134.63;4927138;28;114214;-65
2021/12/10 09:46:20;;;;;;;6.80;1.80;;;;;;;8.12;58.25;99125.78;4911905;28;124047;-64
2021/12/10 09:48:48;;;;;;;4.35;1.45;;;;;;;8.13;58.18;99127.47;4913778;28;123597;-65
2021/12/10 09:51:25;;;;;;;5.97;2.00;;;;;;;8.14;57.96;99140.56;4911706;28;114275;-64
2021/12/10 09:53:59;;;;;;;5.80;1.90;;;;;;;8.16;58.05;99135.19;4913685;28;114393;-65
2021/12/10 09:56:27;;;;;;;3.65;1.58;;;;;;;8.18;58.13;99133.31;4911307;28;124661;-63
2021/12/10 09:58:56;;;;;;;8.18;1.95;;;;;;;8.18;57.85;99141.22;4927046;28;122847;-63
2021/12/10 10:01:29;;;;;;;4.72;1.95;;;;;;;8.18;57.93;99135.94;4911865;28;114962;-65
2021/12/10 10:04:01;;;;;;;5.40;1.73;;;;;;;8.14;57.86;99123.91;4911303;28;113855;-64
2021/12/10 10:06:33;;;;;;;6.20;1.88;;;;;;;8.13;58.30;99132.75;4913740;28;124436;-64
2021/12/10 10:09:08;;;;;;;4.95;2.00;;;;;;;8.13;58.17;99125.66;4913297;28;124325;-64
2021/12/10 10:11:43;;;;;;;5.43;1.88;;;;;;;8.13;58.06;99135.38;4914393;28;115433;-64
2021/12/10 10:14:10;;;;;;;7.38;1.63;;;;;;;8.14;57.96;99123.91;4931515;28;114082;-64
2021/12/10 10:16:43;;;;;;;5.40;1.90;;;;;;;8.14;58.15;99123.91;4920511;28;124307;-64
2021/12/10 10:19:15;;;;;;;6.50;1.80;;;;;;;8.16;58.51;99132.56;4928033;28;123720;-65
2021/12/10 10:21:48;;;;;;;6.90;1.98;;;;;;;8.19;58.21;99124.44;4921536;28;115184;-64
2021/12/10 10:24:17;;;;;;;6.25;1.70;;;;;;;8.23;58.33;99123.34;4931489;28;114820;-64
2021/12/10 10:26:59;;;;;;;5.85;1.70;;;;;;;8.27;58.33;99121.31;4921099;28;123956;-63
2021/12/10 10:29:32;;;;;;;5.95;1.70;;;;;;;8.31;58.38;99121.03;4929657;28;123817;-62
2021/12/10 10:32:09;;;;;;;7.40;1.73;;;;;;;8.33;58.38;99119.16;4937635;28;114709;-62
2021/12/10 10:35:01;;;;;;;4.40;1.75;;;;;;;8.38;58.38;99119.72;4939869;28;113968;-63
2021/12/10 10:37:30;;;;;;;4.57;1.58;;;;;;;8.41;58.22;99120.47;4923481;28;123229;-62
2021/12/10 10:39:58;;;;;;;5.57;1.85;;;;;;;8.45;58.06;99116.72;4916741;28;124943;-63
2021/12/10 10:42:28;;;;;;;5.80;1.75;;;;;;;8.48;58.11;99116.53;4926101;28;114536;-64
2021/12/10 10:45:00;;;;;;;5.50;1.77;;;;;;;8.52;57.78;99107.47;4930518;28;113982;-63
2021/12/10 10:47:27;;;;;;;5.18;1.70;;;;;;;8.54;58.05;99111.69;4931258;28;125949;-64
2021/12/10 10:50:11;;;;;;;4.38;1.50;;;;;;;8.57;57.86;99110.66;4910850;28;123773;-63
2021/12/10 10:52:52;;;;;;;3.58;1.70;;;;;;;8.62;58.05;99123.53;4925269;28;114519;-64
2021/12/10 10:55:27;;;;;;;6.10;1.52;;;;;;;8.66;57.66;99117.94;4914800;28;114577;-64
2021/12/10 10:58:03;;;;;;;5.85;1.65;;;;;;;8.68;57.54;99118.72;4913991;28;124067;-64
2021/12/10 11:00:50;;;;;;;7.00;2.08;;;;;;;8.72;57.59;99120.22;4917147;28;124058;-64
2021/12/10 11:03:42;;;;;;;4.83;1.70;;;;;;;8.76;58.01;99121.69;4932331;28;114053;-64
2021/12/10 11:06:15;;;;;;;5.85;1.60;;;;;;;8.81;57.43;99112.63;4912306;28;113869;-64
2021/12/10 11:08:48;;;;;;;6.63;1.73;;;;;;;8.86;57.61;99115.81;4914535;28;124489;-64
2021/12/10 11:11:29;;;;;;;4.88;1.73;;;;;;;8.89;57.49;99110.31;4926099;28;122939;-62
2021/12/10 11:14:11;;;;;;;6.07;1.50;;;;;;;8.92;57.43;99105.69;4927254;28;115782;-62
2021/12/10 11:16:41;;;;;;;6.28;1.60;;;;;;;8.95;57.10;99109.94;4927724;28;114289;-63
2021/12/10 11:19:18;;;;;;;5.65;1.50;;;;;;;8.96;57.33;99112.44;4910560;28;124535;-63
2021/12/10 11:21:49;;;;;;;5.57;1.92;;;;;;;9.00;57.09;99113.09;4925119;28;123667;-64
2021/12/10 11:24:26;;;;;;;5.65;1.83;;;;;;;9.03;57.07;99118.19;4946308;28;114831;-64
2021/12/10 11:27:02;;;;;;;5.32;1.60;;;;;;;9.04;56.94;99117.25;4924059;28;113990;-63
2021/12/10 11:29:40;;;;;;;5.82;1.70;;;;;;;9.08;56.82;99118.72;4950804;28;124747;-64
2021/12/10 11:32:43;;;;;;;4.63;1.67;;;;;;;9.14;57.03;99126.25;4949052;28;124143;-63
2021/12/10 11:35:19;;;;;;;3.67;1.70;;;;;;;9.20;57.13;99124.97;4947845;28;114239;-64
2021/12/10 11:37:57;;;;;;;;;;;;;;;9.20;57.02;99121.50;4945823;28;113030;-63
2021/12/10 11:40:38;;;;;;;6.35;1.92;;;;;;;9.26;57.19;99124.56;4931045;28;124140;-64
2021/12/10 11:43:20;;;;;;;4.68;1.58;;;;;;;9.28;56.64;99127.94;4929329;28;124037;-63
2021/12/10 11:46:05;;;;;;;4.25;2.00;;;;;;;9.28;56.97;99127.09;4917199;28;114542;-64
2021/12/10 11:48:35;;;;;;;;;;;;;;;9.28;57.23;99129.75;4914804;28;114386;-63
2021/12/10 11:51:09;;;;;;;3.92;1.83;;;;;;;9.31;56.86;99132.19;4911458;28;124895;-64
2021/12/10 11:53:40;;;;;;;4.22;1.80;;;;;;;9.33;56.92;99125.00;4912768;28;124227;-64
2021/12/10 11:56:10;;;;;;;4.82;2.03;;;;;;;9.33;56.68;99125.84;4916819;28;114368;-64
2021/12/10 11:58:37;;;;;;;5.53;1.60;;;;;;;9.34;56.37;99121.41;4912180;28;113903;-64
2021/12/10 12:01:15;;;;;;;3.17;1.60;;;;;;;9.33;56.25;99132.94;4911927;28;124091;-64